Time;durP1;ratioP1;P1;durP2;ratioP2;P2;SDS_P1;SDS_P2;PMS_P1;PMS_P2;Temp;Humidity;BMP_temperature;BMP_pressure;BME280_temperature;BME280_humidity;BME280_pressure;Samples;Min_cycle;Max_cycle;Signal;HPM_P1;HPM_P2
2023/03/13 00:00:40;;;;;;;18.73;3.78;;;11.80;99.90;;;;;;5045692;23;20174;-92
2023/03/13 00:02:44;;;;;;;21.40;4.13;;;11.70;99.90;;;;;;5045429;23;20182;-93
2023/03/13 00:04:45;;;;;;;19.70;4.13;;;11.80;99.90;;;;;;5021380;23;20151;-92
2023/03/13 00:06:45;;;;;;;21.95;3.90;;;11.80;99.90;;;;;;5045366;23;20150;-93
2023/03/13 00:08:46;;;;;;;17.38;3.42;;;11.80;99.90;;;;;;5021672;23;20258;-92
2023/03/13 00:10:47;;;;;;;17.73;3.95;;;11.70;99.90;;;;;;5045314;23;20151;-92
2023/03/13 00:12:48;;;;;;;14.68;3.53;;;11.80;99.90;;;;;;5069099;23;20200;-92
2023/03/13 00:14:48;;;;;;;15.52;3.97;;;11.90;99.90;;;;;;5021070;23;20569;-92
2023/03/13 00:16:49;;;;;;;22.40;4.05;;;11.90;99.90;;;;;;5045079;23;20600;-92
2023/03/13 00:18:52;;;;;;;19.58;4.22;;;12.00;99.90;;;;;;5045162;23;20201;-91
2023/03/13 00:21:00;;;;;;;20.27;4.00;;;12.00;99.90;;;;;;5021670;23;20159;-93
2023/03/13 00:23:01;;;;;;;12.88;3.67;;;12.00;99.90;;;;;;5021548;23;20159;-92
2023/03/13 00:25:01;;;;;;;11.82;3.38;;;12.00;99.90;;;;;;5044968;23;20181;-93
2023/03/13 00:27:04;;;;;;;20.58;3.85;;;12.10;99.90;;;;;;5045003;23;20151;-92
2023/03/13 00:29:05;;;;;;;14.20;3.60;;;12.10;99.90;;;;;;5069255;23;20184;-92
2023/03/13 00:31:09;;;;;;;14.10;4.32;;;12.10;99.90;;;;;;5021238;23;20582;-93
2023/03/13 00:33:10;;;;;;;14.98;4.20;;;12.00;99.90;;;;;;5044829;23;20190;-92
2023/03/13 00:35:12;;;;;;;16.45;4.45;;;12.00;99.90;;;;;;5044753;23;20164;-93
2023/03/13 00:37:13;;;;;;;13.90;3.65;;;12.10;99.90;;;;;;5020971;23;20263;-94
2023/03/13 00:39:14;;;;;;;13.30;3.40;;;12.10;99.90;;;;;;5021079;23;20208;-92
2023/03/13 00:41:17;;;;;;;7.78;2.40;;;12.10;99.90;;;;;;5044837;23;20233;-92
2023/03/13 00:43:18;;;;;;;11.32;3.45;;;12.10;99.90;;;;;;5021487;23;20151;-93
2023/03/13 00:45:19;;;;;;;16.70;4.22;;;12.00;99.90;;;;;;5044969;23;20241;-92
2023/03/13 00:47:20;;;;;;;11.70;3.30;;;11.90;99.90;;;;;;5045405;23;20234;-92
2023/03/13 00:49:21;;;;;;;7.88;3.85;;;12.00;99.90;;;;;;5021058;23;21005;-93
2023/03/13 00:51:25;;;;;;;14.57;4.22;;;12.00;99.90;;;;;;5045104;23;20713;-91
2023/03/13 00:53:26;;;;;;;12.52;4.03;;;12.00;99.90;;;;;;5021028;23;20190;-93
2023/03/13 00:55:27;;;;;;;10.40;4.07;;;12.10;99.90;;;;;;5044988;23;20161;-93
2023/03/13 00:57:28;;;;;;;13.90;5.00;;;12.20;99.90;;;;;;5021131;23;20194;-92
2023/03/13 00:59:28;;;;;;;13.77;4.25;;;12.20;99.90;;;;;;5044344;23;20628;-92
2023/03/13 01:01:34;;;;;;;10.13;4.45;;;12.20;99.90;;;;;;5020974;23;20155;-92
2023/03/13 01:03:36;;;;;;;19.55;4.80;;;12.20;99.90;;;;;;5021107;23;20159;-92
2023/03/13 01:05:37;;;;;;;12.73;4.68;;;12.20;99.90;;;;;;5021047;23;20254;-92
2023/03/13 01:07:38;;;;;;;15.90;5.32;;;12.20;99.90;;;;;;5020828;23;20163;-93
2023/03/13 01:09:39;;;;;;;10.70;4.45;;;12.20;99.90;;;;;;5044771;23;20183;-91
2023/03/13 01:11:41;;;;;;;13.48;4.90;;;12.20;99.90;;;;;;5020913;23;20191;-93
2023/03/13 01:13:42;;;;;;;16.02;4.80;;;12.10;99.90;;;;;;5021650;23;20166;-92
2023/03/13 01:15:43;;;;;;;11.43;4.75;;;12.10;99.90;;;;;;5044916;23;20181;-92
2023/03/13 01:17:45;;;;;;;15.02;5.07;;;12.20;99.90;;;;;;5020893;23;20159;-93
2023/03/13 01:19:46;;;;;;;12.18;5.43;;;12.20;99.90;;;;;;5068590;23;20257;-93
2023/03/13 01:21:47;;;;;;;14.35;5.13;;;12.30;99.90;;;;;;5044862;23;20158;-92
2023/03/13 01:23:49;;;;;;;11.98;4.60;;;12.30;99.90;;;;;;5021194;23;20218;-93
2023/03/13 01:25:50;;;;;;;12.50;4.70;;;12.50;99.90;;;;;;5021244;23;20171;-92
2023/03/13 01:27:51;;;;;;;12.15;4.60;;;12.40;99.90;;;;;;5044744;23;20154;-92
2023/03/13 01:29:52;;;;;;;13.32;5.03;;;12.40;99.90;;;;;;5020826;23;20240;-92
2023/03/13 01:31:52;;;;;;;11.20;4.97;;;12.40;99.90;;;;;;5021096;23;20161;-92
2023/03/13 01:33:55;;;;;;;11.48;4.85;;;12.40;99.90;;;;;;5044631;23;20158;-93
2023/03/13 01:36:03;;;;;;;9.73;4.10;;;12.50;99.90;;;;;;5020809;23;20199;-92
2023/03/13 01:38:04;;;;;;;14.07;5.03;;;12.50;99.90;;;;;;5045574;23;20165;-92
2023/03/13 01:40:05;;;;;;;7.78;3.95;;;12.50;99.90;;;;;;5046314;23;20232;-93
2023/03/13 01:42:06;;;;;;;9.25;5.25;;;12.50;99.90;;;;;;5046437;23;20161;-92
2023/03/13 01:44:24;;;;;;;12.10;4.63;;;12.60;99.90;;;;;;5048106;23;20190;-91
2023/03/13 01:46:28;;;;;;;12.82;4.78;;;12.60;99.90;;;;;;5022893;23;20158;-94
2023/03/13 01:49:03;;;;;;;9.18;4.50;;;12.70;99.90;;;;;;5046444;23;20180;-92
2023/03/13 01:51:13;;;;;;;9.70;3.67;;;12.70;99.90;;;;;;5023056;23;20203;-93
2023/03/13 01:53:13;;;;;;;14.45;5.20;;;12.70;99.90;;;;;;5022502;23;20277;-91
2023/03/13 01:55:16;;;;;;;12.70;4.57;;;12.70;99.90;;;;;;5046440;23;20158;-92
2023/03/13 01:57:35;;;;;;;7.97;3.88;;;12.70;99.90;;;;;;5023184;23;20155;-94
2023/03/13 01:59:50;;;;;;;8.38;4.00;;;12.70;99.90;;;;;;5046406;23;20510;-92
2023/03/13 02:01:54;;;;;;;7.00;3.35;;;12.60;99.90;;;;;;5022523;23;20150;-92
2023/03/13 02:03:56;;;;;;;10.02;4.15;;;12.60;99.90;;;;;;5022127;23;20159;-91
2023/03/13 02:06:00;;;;;;;9.35;3.65;;;12.70;99.90;;;;;;5022054;23;20207;-90
2023/03/13 02:08:05;;;;;;;6.32;3.60;;;12.70;99.90;;;;;;5022151;23;20162;-92
2023/03/13 02:10:09;;;;;;;9.57;3.78;;;12.80;99.90;;;;;;5021982;23;20625;-92
2023/03/13 02:12:14;;;;;;;6.00;3.45;;;12.80;99.90;;;;;;5022230;23;20190;-93
2023/03/13 02:14:17;;;;;;;8.38;3.90;;;12.80;99.90;;;;;;5022174;23;20190;-92
2023/03/13 02:16:19;;;;;;;8.50;3.85;;;12.90;99.90;;;;;;5022159;23;20692;-93
2023/03/13 02:18:24;;;;;;;11.27;4.53;;;12.90;99.90;;;;;;5070108;23;20588;-92
2023/03/13 02:20:25;;;;;;;9.73;4.47;;;12.90;99.90;;;;;;5045895;23;20178;-92
2023/03/13 02:22:46;;;;;;;8.27;3.97;;;12.80;99.90;;;;;;5046123;23;20205;-92
2023/03/13 02:25:08;;;;;;;9.57;4.18;;;12.90;99.90;;;;;;5022253;23;20154;-92
2023/03/13 02:27:09;;;;;;;11.55;4.90;;;13.00;99.90;;;;;;5021991;23;20179;-92
2023/03/13 02:29:17;;;;;;;9.18;4.53;;;13.10;99.90;;;;;;5045572;23;20190;-91
2023/03/13 02:31:18;;;;;;;9.23;4.07;;;13.00;99.90;;;;;;5022098;23;20367;-92
2023/03/13 02:33:21;;;;;;;9.57;4.50;;;12.80;99.90;;;;;;5021919;23;20202;-92
2023/03/13 02:35:23;;;;;;;12.20;4.50;;;13.00;99.90;;;;;;5045855;23;20206;-93
2023/03/13 02:37:26;;;;;;;10.23;4.30;;;13.10;99.90;;;;;;5022152;23;20155;-92
2023/03/13 02:39:29;;;;;;;6.15;3.60;;;13.10;99.90;;;;;;5021901;23;20486;-91
2023/03/13 02:41:33;;;;;;;8.90;4.25;;;13.20;99.90;;;;;;5045790;23;20182;-92
2023/03/13 02:43:36;;;;;;;9.55;4.05;;;13.20;99.90;;;;;;5022302;23;20161;-93
2023/03/13 02:45:38;;;;;;;7.30;4.03;;;13.30;99.90;;;;;;5046307;23;20229;-92
2023/03/13 02:47:39;;;;;;;7.05;3.45;;;13.20;99.90;;;;;;5045797;23;20636;-90
2023/03/13 02:49:39;;;;;;;11.13;3.72;;;13.30;99.90;;;;;;5045869;23;20186;-91
2023/03/13 02:51:44;;;;;;;9.23;3.88;;;13.30;99.90;;;;;;5022031;23;20517;-92
2023/03/13 02:53:49;;;;;;;6.25;4.22;;;13.30;99.90;;;;;;5045969;23;20701;-92
2023/03/13 02:55:50;;;;;;;9.48;3.80;;;13.40;99.90;;;;;;5022181;23;20598;-92
2023/03/13 02:57:51;;;;;;;8.65;3.88;;;13.30;99.90;;;;;;5046201;23;20168;-93
2023/03/13 02:59:52;;;;;;;7.18;3.63;;;13.30;99.90;;;;;;5045692;23;20205;-92
2023/03/13 03:01:53;;;;;;;6.18;3.05;;;13.40;99.90;;;;;;5022022;23;20163;-90
2023/03/13 03:03:54;;;;;;;9.85;3.72;;;13.40;99.90;;;;;;5022050;23;20155;-93
2023/03/13 03:05:54;;;;;;;7.22;3.42;;;13.30;99.90;;;;;;5045521;23;20162;-92
2023/03/13 03:07:55;;;;;;;7.65;3.08;;;13.30;99.90;;;;;;5021670;23;20673;-92
2023/03/13 03:09:57;;;;;;;7.60;3.03;;;13.30;99.90;;;;;;5045404;23;20185;-92
2023/03/13 03:11:58;;;;;;;8.93;3.58;;;13.30;99.90;;;;;;5045170;23;20198;-91
2023/03/13 03:14:01;;;;;;;9.93;3.20;;;13.40;99.90;;;;;;5022102;23;20170;-91
2023/03/13 03:16:12;;;;;;;4.97;2.95;;;13.50;99.90;;;;;;5045758;23;20151;-91
2023/03/13 03:18:13;;;;;;;5.10;2.90;;;13.30;99.90;;;;;;5021602;23;20186;-91
2023/03/13 03:20:13;;;;;;;6.70;3.25;;;13.30;99.90;;;;;;5021511;23;20666;-92
2023/03/13 03:22:16;;;;;;;8.93;3.53;;;13.50;99.90;;;;;;5022183;23;20238;-91
2023/03/13 03:24:17;;;;;;;6.30;3.08;;;13.60;99.90;;;;;;5045469;23;20154;-92
2023/03/13 03:26:18;;;;;;;5.05;2.65;;;13.60;99.90;;;;;;5021555;23;20189;-92
2023/03/13 03:28:19;;;;;;;7.97;3.00;;;13.50;99.90;;;;;;5045223;23;20627;-92
2023/03/13 03:30:20;;;;;;;5.68;2.60;;;13.50;99.90;;;;;;5021610;23;20155;-92
2023/03/13 03:32:21;;;;;;;5.40;2.42;;;13.60;99.90;;;;;;5021423;23;20330;-93
2023/03/13 03:34:22;;;;;;;9.00;2.80;;;13.40;99.90;;;;;;5045301;23;20237;-92
2023/03/13 03:36:24;;;;;;;6.32;2.88;;;13.40;99.90;;;;;;5045486;23;20158;-93
2023/03/13 03:38:25;;;;;;;7.88;2.90;;;13.40;99.90;;;;;;5045297;23;20161;-92
2023/03/13 03:40:26;;;;;;;6.75;2.60;;;13.50;99.90;;;;;;5021507;23;20155;-92
2023/03/13 03:42:27;;;;;;;6.20;2.58;;;13.50;99.90;;;;;;5045372;23;20212;-92
2023/03/13 03:44:28;;;;;;;9.18;2.58;;;13.60;99.90;;;;;;5021372;23;20229;-91
2023/03/13 03:46:33;;;;;;;7.00;2.35;;;13.60;99.90;;;;;;5021887;23;20211;-93
2023/03/13 03:48:34;;;;;;;8.73;2.70;;;13.60;99.90;;;;;;5021389;23;20175;-92
2023/03/13 03:50:35;;;;;;;5.00;2.55;;;13.60;99.90;;;;;;5045101;23;20166;-92
2023/03/13 03:52:37;;;;;;;5.47;2.42;;;13.70;99.90;;;;;;5021319;23;20211;-94
2023/03/13 03:54:38;;;;;;;4.70;2.47;;;13.90;99.90;;;;;;5021681;23;20358;-92
2023/03/13 03:56:39;;;;;;;3.90;2.30;;;13.80;99.90;;;;;;5045253;23;20664;-92
2023/03/13 03:58:40;;;;;;;8.70;2.92;;;13.80;99.90;;;;;;5045463;23;20213;-92
2023/03/13 04:01:07;;;;;;;9.50;2.80;;;13.80;99.90;;;;;;5021854;23;20584;-91
2023/03/13 04:03:08;;;;;;;13.45;2.65;;;13.80;99.90;;;;;;5021528;23;20159;-92
2023/03/13 04:05:09;;;;;;;7.03;2.38;;;13.70;99.90;;;;;;5045054;23;20154;-93
2023/03/13 04:07:12;;;;;;;5.90;2.35;;;13.70;99.90;;;;;;5021830;23;20185;-92
2023/03/13 04:09:14;;;;;;;5.63;2.33;;;13.70;99.90;;;;;;5044704;23;20253;-92
2023/03/13 04:11:15;;;;;;;5.80;2.15;;;13.70;99.90;;;;;;5069336;23;20169;-92
2023/03/13 04:13:22;;;;;;;5.60;2.20;;;13.70;99.90;;;;;;5044919;23;20217;-92
2023/03/13 04:15:23;;;;;;;6.20;2.20;;;13.60;99.90;;;;;;5045174;23;20186;-92
2023/03/13 04:17:24;;;;;;;5.05;2.50;;;13.60;99.90;;;;;;5044778;23;20162;-92
2023/03/13 04:19:25;;;;;;;7.13;2.40;;;13.60;99.90;;;;;;5021116;23;20186;-92
2023/03/13 04:21:26;;;;;;;5.95;2.80;;;13.60;99.90;;;;;;5020963;23;20163;-92
2023/03/13 04:23:37;;;;;;;7.55;2.58;;;13.60;99.90;;;;;;5044896;23;20233;-92
2023/03/13 04:25:38;;;;;;;7.93;2.40;;;13.70;99.90;;;;;;5045262;23;20225;-92
2023/03/13 04:27:43;;;;;;;4.38;2.20;;;13.90;99.90;;;;;;5022011;23;20167;-93
2023/03/13 04:29:44;;;;;;;8.60;2.70;;;14.00;99.90;;;;;;5020806;23;20511;-92
2023/03/13 04:32:13;;;;;;;4.82;2.15;;;13.90;99.90;;;;;;5025876;23;20189;-92
2023/03/13 04:34:37;;;;;;;4.75;2.05;;;13.70;99.90;;;;;;5049641;23;20173;-91
2023/03/13 04:36:56;;;;;;;7.00;2.28;;;13.60;99.90;;;;;;5048873;23;20217;-92
2023/03/13 04:39:15;;;;;;;8.90;2.42;;;13.70;99.90;;;;;;5049018;23;20190;-92
2023/03/13 04:41:25;;;;;;;7.97;2.05;;;13.80;99.90;;;;;;5047235;23;20225;-92
2023/03/13 04:43:38;;;;;;;7.43;2.00;;;13.80;99.90;;;;;;5044978;23;20309;-92
2023/03/13 04:45:42;;;;;;;8.95;2.20;;;13.70;99.90;;;;;;5045472;23;20245;-92
2023/03/13 04:48:12;;;;;;;6.28;2.33;;;13.70;99.90;;;;;;5026962;23;20238;-91
2023/03/13 04:50:22;;;;;;;5.18;1.75;;;13.80;99.90;;;;;;5045241;23;20628;-93
2023/03/13 04:52:42;;;;;;;7.05;2.53;;;13.80;99.90;;;;;;5024622;23;20198;-92
2023/03/13 04:55:03;;;;;;;5.65;2.05;;;13.70;99.90;;;;;;5048713;23;20161;-92
2023/03/13 04:57:21;;;;;;;10.70;2.65;;;13.80;99.90;;;;;;5024297;23;20214;-93
2023/03/13 04:59:29;;;;;;;5.78;2.28;;;13.90;99.90;;;;;;5022313;23;20648;-93
2023/03/13 05:01:50;;;;;;;8.20;2.45;;;13.90;99.90;;;;;;5005312;23;20192;-92
2023/03/13 05:04:10;;;;;;;9.98;2.03;;;13.80;99.90;;;;;;5024391;23;20167;-92
2023/03/13 05:06:33;;;;;;;10.48;2.65;;;13.70;99.90;;;;;;5048644;23;20168;-91
2023/03/13 05:08:39;;;;;;;5.35;2.22;;;13.90;99.90;;;;;;5046118;23;20260;-92
2023/03/13 05:11:02;;;;;;;8.82;2.08;;;13.80;99.90;;;;;;5044962;23;20616;-92
2023/03/13 05:13:23;;;;;;;9.13;2.28;;;13.80;99.90;;;;;;5006858;23;20553;-92
2023/03/13 05:15:30;;;;;;;12.63;3.03;;;13.90;99.90;;;;;;5046520;23;20201;-91
2023/03/13 05:17:57;;;;;;;9.05;2.33;;;13.80;99.90;;;;;;5025442;23;20157;-91
2023/03/13 05:20:13;;;;;;;8.40;2.25;;;13.90;99.90;;;;;;5025409;23;20645;-92
2023/03/13 05:22:40;;;;;;;16.23;2.60;;;13.80;99.90;;;;;;5029498;23;20157;-91
2023/03/13 05:24:59;;;;;;;11.13;2.42;;;13.80;99.90;;;;;;5050349;23;20213;-91
2023/03/13 05:27:02;;;;;;;11.35;2.65;;;13.70;99.90;;;;;;5047337;23;20154;-91
2023/03/13 05:29:23;;;;;;;7.32;2.22;;;13.80;99.90;;;;;;5049796;23;20178;-91
2023/03/13 05:31:40;;;;;;;7.47;2.00;;;13.80;99.90;;;;;;5046341;23;20182;-91
2023/03/13 05:33:59;;;;;;;11.65;2.50;;;13.70;99.90;;;;;;5049766;23;20573;-92
2023/03/13 05:36:15;;;;;;;11.02;2.25;;;13.70;99.90;;;;;;5025326;23;20159;-92
2023/03/13 05:38:31;;;;;;;12.45;2.53;;;13.80;99.90;;;;;;5025087;23;20186;-91
2023/03/13 05:40:45;;;;;;;12.15;2.58;;;13.80;99.90;;;;;;5046699;23;20153;-90
2023/03/13 05:43:13;;;;;;;8.45;2.30;;;13.80;99.90;;;;;;5051685;23;20525;-92
2023/03/13 05:45:33;;;;;;;14.55;2.22;;;13.80;99.90;;;;;;5049345;23;20158;-92
2023/03/13 05:47:45;;;;;;;14.27;2.58;;;13.70;99.90;;;;;;5046632;23;20233;-92
2023/03/13 05:50:05;;;;;;;12.63;2.60;;;13.70;99.90;;;;;;5049677;23;20704;-93
2023/03/13 05:52:10;;;;;;;11.57;2.83;;;13.80;99.90;;;;;;5023508;23;20211;-92
2023/03/13 05:54:26;;;;;;;6.05;2.00;;;13.90;99.90;;;;;;5046399;23;20549;-92
2023/03/13 05:56:47;;;;;;;8.35;1.92;;;13.70;99.90;;;;;;5046048;23;20158;-91
2023/03/13 05:59:08;;;;;;;5.45;2.17;;;13.70;99.90;;;;;;5030920;23;20192;-91
2023/03/13 06:01:25;;;;;;;8.32;1.95;;;13.70;99.90;;;;;;5046088;23;20158;-93
2023/03/13 06:03:33;;;;;;;11.38;2.50;;;13.70;99.90;;;;;;5047196;23;20158;-92
2023/03/13 06:05:34;;;;;;;11.45;2.50;;;13.70;99.90;;;;;;5022461;23;20155;-91
2023/03/13 06:07:38;;;;;;;13.18;2.40;;;13.70;99.90;;;;;;5022867;23;20258;-92
2023/03/13 06:09:39;;;;;;;15.35;2.50;;;13.80;99.90;;;;;;5046077;23;20182;-91
2023/03/13 06:11:41;;;;;;;12.20;2.22;;;13.70;99.90;;;;;;5045882;23;20162;-90
2023/03/13 06:13:42;;;;;;;8.93;2.20;;;13.80;99.90;;;;;;5022591;23;20201;-90
2023/03/13 06:16:01;;;;;;;5.80;2.15;;;13.70;99.90;;;;;;5046258;23;20209;-91
2023/03/13 06:18:13;;;;;;;11.15;2.30;;;13.70;99.90;;;;;;5024445;23;20174;-91
2023/03/13 06:20:14;;;;;;;8.82;2.10;;;13.70;99.90;;;;;;5046050;23;20150;-90
2023/03/13 06:22:15;;;;;;;13.95;2.55;;;13.70;99.90;;;;;;5045852;23;20150;-92
2023/03/13 06:24:16;;;;;;;11.18;2.28;;;13.70;99.90;;;;;;5045516;23;20162;-91
2023/03/13 06:26:17;;;;;;;14.57;1.92;;;13.80;99.90;;;;;;5022455;23;20470;-91
2023/03/13 06:28:17;;;;;;;16.00;2.53;;;13.80;99.90;;;;;;5046291;23;20162;-94
2023/03/13 06:31:25;;;;;;;9.75;2.15;;;13.80;99.90;;;;;;5036898;23;20158;-95
2023/03/13 06:36:18;;;;;;;13.65;3.13;;;13.80;99.90;;;;;;5096653;23;20204;-91
2023/03/13 06:38:19;;;;;;;17.77;8.50;;;13.70;99.90;;;;;;5070266;23;20157;-91
2023/03/13 06:40:20;;;;;;;10.68;2.22;;;13.70;99.90;;;;;;5070354;23;20216;-91
2023/03/13 06:42:20;;;;;;;14.77;4.18;;;13.70;99.90;;;;;;5045967;23;20165;-92
2023/03/13 06:44:21;;;;;;;10.68;3.30;;;13.70;99.90;;;;;;5046745;23;20154;-92
2023/03/13 06:46:23;;;;;;;7.82;2.15;;;13.80;99.90;;;;;;5046060;23;20162;-91
2023/03/13 06:48:24;;;;;;;7.30;2.50;;;13.80;99.90;;;;;;5070035;23;20153;-92
2023/03/13 06:50:25;;;;;;;13.13;2.35;;;13.90;99.90;;;;;;5046338;23;20647;-92
2023/03/13 06:52:26;;;;;;;13.02;2.30;;;13.90;99.90;;;;;;5045757;23;20237;-92
2023/03/13 06:54:27;;;;;;;14.80;3.15;;;13.80;99.90;;;;;;5046118;23;20245;-92
2023/03/13 06:56:28;;;;;;;10.18;2.10;;;13.80;99.90;;;;;;5046098;23;20149;-92
2023/03/13 06:58:29;;;;;;;10.63;2.50;;;13.80;99.90;;;;;;5045654;23;20695;-92
2023/03/13 07:00:29;;;;;;;13.85;2.45;;;13.80;99.90;;;;;;5070490;23;20150;-91
2023/03/13 07:02:31;;;;;;;12.52;2.30;;;13.90;99.90;;;;;;5045646;23;20190;-92
2023/03/13 07:04:31;;;;;;;8.13;2.00;;;13.90;99.90;;;;;;5070082;23;20181;-91
2023/03/13 07:06:32;;;;;;;9.45;2.17;;;13.90;99.90;;;;;;5045986;23;20161;-91
2023/03/13 07:08:34;;;;;;;14.05;2.53;;;13.80;99.90;;;;;;5049010;23;20166;-91
2023/03/13 07:10:35;;;;;;;13.60;2.50;;;13.80;99.90;;;;;;5071164;23;20204;-93
2023/03/13 07:12:36;;;;;;;10.30;2.08;;;13.80;99.90;;;;;;5069888;23;20193;-93
2023/03/13 07:14:37;;;;;;;15.40;3.72;;;13.80;99.90;;;;;;5045382;23;20225;-91
2023/03/13 07:16:38;;;;;;;14.73;2.80;;;13.80;99.90;;;;;;5045412;23;20647;-92
2023/03/13 07:18:43;;;;;;;11.32;2.28;;;13.80;99.90;;;;;;5045478;23;20175;-91
2023/03/13 07:20:44;;;;;;;12.45;2.38;;;13.90;99.90;;;;;;5070147;23;20217;-92
2023/03/13 07:22:50;;;;;;;10.60;2.45;;;13.90;99.90;;;;;;5045881;23;20154;-93
2023/03/13 07:24:51;;;;;;;14.35;2.95;;;14.00;99.90;;;;;;5069968;23;20154;-91
2023/03/13 07:26:51;;;;;;;14.15;2.28;;;14.10;99.90;;;;;;5045581;23;20177;-93
2023/03/13 07:28:52;;;;;;;11.27;2.38;;;13.90;99.90;;;;;;5045183;23;20568;-90
2023/03/13 07:30:53;;;;;;;10.07;2.30;;;13.90;99.90;;;;;;5045800;23;20151;-94
2023/03/13 07:32:54;;;;;;;10.30;2.13;;;13.90;99.90;;;;;;5045476;23;20205;-92
2023/03/13 07:34:54;;;;;;;11.82;2.40;;;14.00;99.90;;;;;;5045456;23;20198;-91
2023/03/13 07:36:55;;;;;;;12.43;2.38;;;14.10;99.90;;;;;;5069777;23;20157;-90
2023/03/13 07:38:56;;;;;;;11.02;2.60;;;14.10;99.90;;;;;;5045230;23;20617;-91
2023/03/13 07:40:57;;;;;;;8.98;2.42;;;14.10;99.90;;;;;;5069273;23;20262;-92
2023/03/13 07:42:58;;;;;;;16.02;2.38;;;14.10;99.90;;;;;;5045560;23;20596;-94
2023/03/13 07:44:59;;;;;;;10.30;2.28;;;14.10;99.90;;;;;;5045250;23;20255;-92
2023/03/13 07:47:00;;;;;;;13.27;2.75;;;14.10;99.90;;;;;;5045344;23;20159;-91
2023/03/13 07:49:01;;;;;;;13.25;2.53;;;14.10;99.90;;;;;;5045265;23;20206;-92
2023/03/13 07:51:03;;;;;;;11.85;2.42;;;14.10;99.90;;;;;;5069542;23;20208;-91
2023/03/13 07:53:04;;;;;;;12.50;2.78;;;14.20;99.90;;;;;;5045370;23;20201;-93
2023/03/13 07:55:05;;;;;;;13.55;2.63;;;14.20;99.90;;;;;;5045360;23;20158;-91
2023/03/13 07:57:05;;;;;;;9.68;2.63;;;14.20;99.90;;;;;;5045150;23;20178;-90
2023/03/13 07:59:06;;;;;;;6.50;2.45;;;14.20;99.90;;;;;;5045626;23;20166;-90
2023/03/13 08:01:15;;;;;;;10.75;2.78;;;14.30;99.90;;;;;;5069733;23;20188;-91
2023/03/13 08:03:16;;;;;;;10.18;2.45;;;14.40;99.90;;;;;;5045318;23;20154;-93
2023/03/13 08:05:17;;;;;;;8.10;2.33;;;14.40;99.90;;;;;;5044841;23;20154;-93
2023/03/13 08:07:18;;;;;;;8.63;2.53;;;14.50;99.90;;;;;;5044885;23;20157;-92
2023/03/13 08:09:19;;;;;;;6.75;2.10;;;14.20;99.90;;;;;;5045162;23;20178;-91
2023/03/13 08:11:25;;;;;;;9.05;1.88;;;14.30;99.90;;;;;;5045284;23;20158;-90
2023/03/13 08:13:26;;;;;;;11.85;2.38;;;14.50;99.90;;;;;;5045162;23;20549;-92
2023/03/13 08:15:27;;;;;;;12.40;2.50;;;14.50;99.90;;;;;;5069297;23;20158;-94
2023/03/13 08:17:31;;;;;;;10.63;2.30;;;14.60;99.90;;;;;;5069596;23;20161;-91
2023/03/13 08:19:32;;;;;;;7.95;1.88;;;14.60;99.90;;;;;;5044958;23;20317;-91
2023/03/13 08:21:35;;;;;;;11.68;2.20;;;14.70;99.90;;;;;;5045214;23;20154;-93
2023/03/13 08:23:36;;;;;;;9.30;2.55;;;14.60;99.90;;;;;;5069370;23;20180;-92
2023/03/13 08:25:37;;;;;;;9.77;2.17;;;14.60;99.90;;;;;;5069322;23;20161;-92
2023/03/13 08:27:38;;;;;;;9.13;2.10;;;14.60;99.90;;;;;;5045371;23;20158;-94
2023/03/13 08:29:39;;;;;;;10.30;2.25;;;14.80;99.90;;;;;;5045049;23;20176;-92
2023/03/13 08:31:44;;;;;;;8.40;2.40;;;14.70;99.90;;;;;;5045030;23;20585;-91
2023/03/13 08:33:46;;;;;;;5.78;1.98;;;14.80;99.90;;;;;;5045877;23;20190;-91
2023/03/13 08:35:47;;;;;;;11.73;2.55;;;14.90;99.90;;;;;;5069349;23;20166;-92
2023/03/13 08:37:48;;;;;;;11.63;2.20;;;15.10;99.90;;;;;;5044829;23;20763;-92
2023/03/13 08:39:49;;;;;;;11.90;2.42;;;15.20;99.90;;;;;;5069082;23;20173;-94
2023/03/13 08:41:49;;;;;;;6.03;2.30;;;15.20;99.90;;;;;;5045092;23;20215;-92
2023/03/13 08:43:54;;;;;;;10.07;3.17;;;15.40;99.90;;;;;;5069088;23;20153;-93
2023/03/13 08:45:55;;;;;;;7.60;2.10;;;15.80;99.90;;;;;;5045024;23;20226;-93
2023/03/13 08:47:56;;;;;;;5.82;1.98;;;16.00;99.90;;;;;;5044922;23;20158;-91
2023/03/13 08:49:57;;;;;;;13.93;2.90;;;16.00;99.90;;;;;;5044879;23;20200;-93
2023/03/13 08:51:57;;;;;;;8.15;1.85;;;16.10;99.90;;;;;;5044820;23;20485;-93
2023/03/13 08:53:59;;;;;;;13.57;2.55;;;16.00;99.90;;;;;;5069397;23;20524;-92
2023/03/13 08:56:00;;;;;;;10.02;2.40;;;16.00;99.90;;;;;;5045157;23;20153;-93
2023/03/13 08:58:03;;;;;;;7.20;1.90;;;15.90;99.90;;;;;;5069353;23;20240;-91
2023/03/13 09:00:08;;;;;;;6.45;1.80;;;15.60;99.90;;;;;;5044875;23;20260;-92
2023/03/13 09:02:10;;;;;;;5.53;2.00;;;15.50;99.90;;;;;;5069222;23;20628;-92
2023/03/13 09:04:11;;;;;;;6.85;1.77;;;15.40;99.90;;;;;;5044963;23;20193;-92
2023/03/13 09:06:12;;;;;;;6.22;1.88;;;15.20;99.90;;;;;;5045125;23;20693;-92
2023/03/13 09:08:14;;;;;;;9.50;2.10;;;15.20;99.90;;;;;;5044631;23;20150;-92
2023/03/13 09:10:15;;;;;;;10.32;2.25;;;15.40;99.90;;;;;;5045061;23;20165;-92
2023/03/13 09:12:16;;;;;;;4.50;1.70;;;15.60;99.90;;;;;;5044932;23;20190;-93
2023/03/13 09:14:20;;;;;;;6.63;1.70;;;15.70;99.90;;;;;;5045397;23;20513;-93
2023/03/13 09:16:22;;;;;;;6.53;1.90;;;15.60;99.90;;;;;;5045050;23;20161;-93
2023/03/13 09:18:24;;;;;;;6.32;1.70;;;15.40;99.90;;;;;;5068956;23;20252;-91
2023/03/13 09:20:25;;;;;;;5.25;1.75;;;15.40;99.90;;;;;;5045065;23;20157;-92
2023/03/13 09:22:26;;;;;;;9.50;1.70;;;15.30;99.90;;;;;;5044617;23;20628;-91
2023/03/13 09:24:26;;;;;;;6.85;1.70;;;15.20;99.90;;;;;;5045041;23;20581;-92
2023/03/13 09:26:28;;;;;;;5.13;1.35;;;15.20;99.90;;;;;;5069170;23;20161;-93
2023/03/13 09:28:29;;;;;;;6.63;2.00;;;15.30;99.90;;;;;;5069425;23;20607;-92
2023/03/13 09:30:30;;;;;;;5.93;1.67;;;15.50;99.90;;;;;;5045337;23;20155;-92
2023/03/13 09:32:30;;;;;;;9.18;1.88;;;15.70;99.90;;;;;;5044661;23;20572;-91
2023/03/13 09:34:31;;;;;;;5.50;1.63;;;15.60;99.90;;;;;;5044934;23;20186;-92
2023/03/13 09:36:32;;;;;;;8.02;1.70;;;15.60;99.90;;;;;;5045355;23;20166;-93
2023/03/13 09:38:33;;;;;;;8.15;1.67;;;15.50;99.90;;;;;;5044740;23;20178;-92
2023/03/13 09:40:43;;;;;;;8.18;1.80;;;15.50;99.90;;;;;;5069199;23;20157;-92
2023/03/13 09:43:10;;;;;;;6.07;1.60;;;15.60;99.90;;;;;;5044992;23;20165;-92
2023/03/13 09:45:24;;;;;;;7.68;1.88;;;15.40;99.90;;;;;;5012052;23;20298;-92
2023/03/13 09:47:34;;;;;;;8.82;2.00;;;15.40;99.90;;;;;;5069033;23;20273;-93
2023/03/13 09:49:41;;;;;;;7.22;2.00;;;15.50;99.90;;;;;;5044529;23;20193;-91
2023/03/13 09:51:47;;;;;;;8.80;1.90;;;15.70;99.90;;;;;;5068958;23;20165;-92
2023/03/13 09:53:54;;;;;;;8.60;1.60;;;15.80;99.90;;;;;;5068981;23;20201;-92
2023/03/13 09:55:54;;;;;;;2.75;1.52;;;15.90;99.90;;;;;;5045260;23;20154;-92
2023/03/13 09:58:15;;;;;;;4.13;1.30;;;15.90;99.90;;;;;;5069100;23;20164;-93
2023/03/13 10:00:28;;;;;;;6.30;1.48;;;15.90;99.90;;;;;;5047816;23;20170;-92
2023/03/13 10:02:35;;;;;;;6.00;1.58;;;15.80;99.90;;;;;;5048928;23;20165;-92
2023/03/13 10:04:46;;;;;;;6.50;1.52;;;15.80;99.90;;;;;;5046117;23;20154;-93
2023/03/13 10:06:48;;;;;;;5.43;1.27;;;15.90;99.90;;;;;;5071100;23;20154;-93
2023/03/13 10:08:48;;;;;;;3.40;1.17;;;16.10;99.90;;;;;;5071263;23;20220;-93
2023/03/13 10:10:54;;;;;;;6.68;1.52;;;16.20;99.90;;;;;;5047080;23;20158;-92
2023/03/13 10:13:02;;;;;;;5.38;1.50;;;16.20;99.90;;;;;;5046181;23;20192;-93
2023/03/13 10:15:33;;;;;;;4.47;1.73;;;16.40;99.90;;;;;;5046176;23;20192;-91
2023/03/13 10:17:37;;;;;;;3.78;1.30;;;16.40;99.90;;;;;;5046288;23;20249;-94
2023/03/13 10:19:43;;;;;;;6.10;1.13;;;16.30;99.90;;;;;;5070017;23;20177;-92
2023/03/13 10:21:48;;;;;;;3.58;1.40;;;16.20;99.90;;;;;;5045940;23;20154;-93
2023/03/13 10:23:53;;;;;;;6.15;1.20;;;16.20;99.90;;;;;;5070735;23;20165;-92
2023/03/13 10:25:53;;;;;;;3.40;1.50;;;16.40;99.90;;;;;;5070190;23;20149;-91
2023/03/13 10:27:55;;;;;;;5.20;1.35;;;16.50;99.90;;;;;;5070310;23;20158;-92
2023/03/13 10:29:55;;;;;;;6.57;1.40;;;16.40;99.90;;;;;;5045844;23;20183;-91
2023/03/13 10:32:04;;;;;;;6.20;1.25;;;16.60;99.90;;;;;;5045854;23;20181;-92
2023/03/13 10:34:11;;;;;;;5.45;1.50;;;16.90;99.90;;;;;;5070150;23;20207;-92
2023/03/13 10:36:13;;;;;;;4.05;1.15;;;16.80;99.90;;;;;;5069982;23;20169;-93
2023/03/13 10:38:18;;;;;;;2.53;1.10;;;16.70;99.90;;;;;;5045842;23;20233;-91
2023/03/13 10:40:25;;;;;;;5.35;1.50;;;16.70;99.90;;;;;;5046207;23;20150;-91
2023/03/13 10:42:30;;;;;;;6.32;1.13;;;16.60;99.90;;;;;;5045984;23;20209;-92
2023/03/13 10:44:32;;;;;;;3.83;1.23;;;16.50;99.90;;;;;;5045608;23;20253;-93
2023/03/13 10:46:38;;;;;;;4.43;1.20;;;16.30;99.90;;;;;;5045829;23;20182;-91
2023/03/13 10:48:40;;;;;;;5.25;1.20;;;16.30;99.90;;;;;;5070348;23;20493;-92
2023/03/13 10:50:47;;;;;;;4.10;1.40;;;16.20;99.90;;;;;;5070181;23;20204;-92